Shenandoah Natl Park, Virginia
Current Conditions -  °F | °C
As of 2:55 PM on Thursday 23 Oct 2014 (Local Time) from KLUA Reporting Station
Scattered Clouds Scattered Clouds  
Wind Chill: 61°   Ceiling: Unl
Heat Index: 61°   Visibility: 10mi
Dew Point: 45°   Wind: 12mph
Humidity: 55%   Direction: 290°WNW
Pressure: 29.96"   Gusts: 18mph
Location:  38.52°N, 78.4°W
Report Text: KLUA 231855Z AUTO 29010G16KT 230V320 10SM SCT040 16/07 A2996 RMK AO2
Loading
Personal Weather Stations






























Interactive Weather Map
Tropical Storm Tracking
New forecast layout! Learn more

10-Day Weather Forecast

Advertisements
Track Severe Weather on mobile